Main page
Satellite images 10-day forecastsClimateMarine weather Cyclones Lightning AirportsFAQ Newsletter About
Weather : Europe Africa North America South America Asia Australia-Oceania Others
Languages Contact

Cologne, Germany

Cologne Bonn Airport

latitude: 50-52N, longitude: 007-10E, elevation: 91 m


METAR: EDDK 010320Z 30009KT 9999 OVC015 19/15 Q1010 NOSIG
TAF: EDDK 312300Z 0100/0206 29007KT 9999 BKN020 TEMPO 0101/0111 BKN014 TEMPO 0104/0111 RA BECMG 0121/0124 VRB03KT

Time: 05:49 (03:49 UTC)

Current weather observation

The report was made 29 minutes ago, at 03:20 UTC
Wind 9 kt from the West/Northwest
Temperature 19°C
Humidity 78%
Pressure 1010 hPa
Visibility 10 km or more
Overcast at a height of 1500 ft

Change units

Forecast

The report was made 4 hours and 49 minutes ago, at 23:00 UTC
Forecast valid from 01 at 00 UTC to 02 at 06 UTC
Wind 7 kt from the West/Northwest
Visibility 10 km or more
Broken clouds at a height of 2000 ft
Temporary
from 01 at 01 UTC to 01 at 11 UTC
Broken clouds at a height of 1400 ft
Temporary
from 01 at 04 UTC to 01 at 11 UTC
rain
Becoming
from 01 at 21 UTC to 01 at 24 UTC
Wind 3 kt from variable directions
The information on this site is subject to a disclaimer
Weather : Europe Africa North America South America Asia Australia-Oceania Others
Satellite images 10-day forecastsClimateMarine weather Cyclones Lightning AirportsFAQ Languages Contact Newsletter About